sensor_id;sensor_type;location;lat;lon;timestamp;temperature;humidity
23079;DHT22;11707;50.830;4.364;2023-08-06T00:01:20;15.40;99.90
23079;DHT22;11707;50.830;4.364;2023-08-06T00:03:48;15.30;99.90
23079;DHT22;11707;50.830;4.364;2023-08-06T00:06:13;15.30;99.90
23079;DHT22;11707;50.830;4.364;2023-08-06T00:08:39;15.30;99.90
23079;DHT22;11707;50.830;4.364;2023-08-06T00:11:07;15.30;99.90
23079;DHT22;11707;50.830;4.364;2023-08-06T00:13:33;15.40;99.90
23079;DHT22;11707;50.830;4.364;2023-08-06T00:16:11;15.40;99.90
23079;DHT22;11707;50.830;4.364;2023-08-06T00:18:38;15.50;99.90
23079;DHT22;11707;50.830;4.364;2023-08-06T00:21:03;15.50;99.90
23079;DHT22;11707;50.830;4.364;2023-08-06T00:23:32;15.40;99.90
23079;DHT22;11707;50.830;4.364;2023-08-06T00:25:58;15.50;99.90
23079;DHT22;11707;50.830;4.364;2023-08-06T00:28:23;15.30;99.90
23079;DHT22;11707;50.830;4.364;2023-08-06T00:30:53;15.40;99.90
23079;DHT22;11707;50.830;4.364;2023-08-06T00:33:23;15.50;99.90
23079;DHT22;11707;50.830;4.364;2023-08-06T00:35:49;15.50;99.90
23079;DHT22;11707;50.830;4.364;2023-08-06T00:38:14;15.40;99.90
23079;DHT22;11707;50.830;4.364;2023-08-06T00:40:40;15.30;99.90
23079;DHT22;11707;50.830;4.364;2023-08-06T00:43:06;15.30;99.90
23079;DHT22;11707;50.830;4.364;2023-08-06T00:45:34;15.30;99.90
23079;DHT22;11707;50.830;4.364;2023-08-06T00:48:01;15.50;99.90
23079;DHT22;11707;50.830;4.364;2023-08-06T00:50:27;15.30;99.90
23079;DHT22;11707;50.830;4.364;2023-08-06T00:52:53;15.30;99.90
23079;DHT22;11707;50.830;4.364;2023-08-06T00:55:19;15.30;99.90
23079;DHT22;11707;50.830;4.364;2023-08-06T00:57:47;15.30;99.90
23079;DHT22;11707;50.830;4.364;2023-08-06T01:00:13;15.30;99.90
23079;DHT22;11707;50.830;4.364;2023-08-06T01:02:39;15.20;99.90
23079;DHT22;11707;50.830;4.364;2023-08-06T01:05:06;15.20;99.90
23079;DHT22;11707;50.830;4.364;2023-08-06T01:13:46;15.30;99.90
23079;DHT22;11707;50.830;4.364;2023-08-06T01:16:21;15.20;99.90
23079;DHT22;11707;50.830;4.364;2023-08-06T01:18:49;15.10;99.90
23079;DHT22;11707;50.830;4.364;2023-08-06T01:21:16;15.10;99.90
23079;DHT22;11707;50.830;4.364;2023-08-06T01:23:44;15.10;99.90
23079;DHT22;11707;50.830;4.364;2023-08-06T01:31:26;15.10;99.90
23079;DHT22;11707;50.830;4.364;2023-08-06T01:33:53;15.20;99.90
23079;DHT22;11707;50.830;4.364;2023-08-06T01:36:20;15.20;99.90
23079;DHT22;11707;50.830;4.364;2023-08-06T01:38:48;15.30;99.90
23079;DHT22;11707;50.830;4.364;2023-08-06T01:41:16;15.20;99.90
23079;DHT22;11707;50.830;4.364;2023-08-06T01:43:41;15.20;99.90
23079;DHT22;11707;50.830;4.364;2023-08-06T01:46:07;15.20;99.90
23079;DHT22;11707;50.830;4.364;2023-08-06T01:48:33;15.10;99.90
23079;DHT22;11707;50.830;4.364;2023-08-06T01:50:58;15.00;99.90
23079;DHT22;11707;50.830;4.364;2023-08-06T01:53:24;15.10;99.90
23079;DHT22;11707;50.830;4.364;2023-08-06T01:55:50;15.00;99.90
23079;DHT22;11707;50.830;4.364;2023-08-06T01:58:15;15.00;99.90
23079;DHT22;11707;50.830;4.364;2023-08-06T02:00:41;15.10;99.90
23079;DHT22;11707;50.830;4.364;2023-08-06T02:03:07;15.00;99.90
23079;DHT22;11707;50.830;4.364;2023-08-06T02:05:33;15.00;99.90
23079;DHT22;11707;50.830;4.364;2023-08-06T02:08:00;14.90;99.90
23079;DHT22;11707;50.830;4.364;2023-08-06T02:10:26;14.90;99.90
23079;DHT22;11707;50.830;4.364;2023-08-06T02:12:52;14.80;99.90
23079;DHT22;11707;50.830;4.364;2023-08-06T02:15:17;14.70;99.90
23079;DHT22;11707;50.830;4.364;2023-08-06T02:17:45;14.70;99.90
23079;DHT22;11707;50.830;4.364;2023-08-06T02:20:13;14.60;99.90
23079;DHT22;11707;50.830;4.364;2023-08-06T02:22:39;14.60;99.90
23079;DHT22;11707;50.830;4.364;2023-08-06T02:25:07;14.60;99.90
23079;DHT22;11707;50.830;4.364;2023-08-06T02:27:33;14.50;99.90
23079;DHT22;11707;50.830;4.364;2023-08-06T02:30:01;14.50;99.90
23079;DHT22;11707;50.830;4.364;2023-08-06T02:32:28;14.50;99.90
23079;DHT22;11707;50.830;4.364;2023-08-06T02:34:55;14.50;99.90
23079;DHT22;11707;50.830;4.364;2023-08-06T02:37:21;14.50;99.90
23079;DHT22;11707;50.830;4.364;2023-08-06T02:39:46;14.60;99.90
23079;DHT22;11707;50.830;4.364;2023-08-06T02:42:12;14.60;99.90
23079;DHT22;11707;50.830;4.364;2023-08-06T02:44:38;14.60;99.90
23079;DHT22;11707;50.830;4.364;2023-08-06T02:47:03;14.60;99.90
23079;DHT22;11707;50.830;4.364;2023-08-06T02:49:29;14.70;99.90
23079;DHT22;11707;50.830;4.364;2023-08-06T02:51:57;14.60;99.90
23079;DHT22;11707;50.830;4.364;2023-08-06T02:54:23;14.70;99.90
23079;DHT22;11707;50.830;4.364;2023-08-06T02:56:49;14.60;99.90
23079;DHT22;11707;50.830;4.364;2023-08-06T02:59:15;14.60;99.90
23079;DHT22;11707;50.830;4.364;2023-08-06T03:01:41;14.60;99.90
23079;DHT22;11707;50.830;4.364;2023-08-06T03:04:06;14.60;99.90
23079;DHT22;11707;50.830;4.364;2023-08-06T03:06:32;14.70;99.90
23079;DHT22;11707;50.830;4.364;2023-08-06T03:08:58;14.70;99.90
23079;DHT22;11707;50.830;4.364;2023-08-06T03:11:23;14.70;99.90
23079;DHT22;11707;50.830;4.364;2023-08-06T03:13:51;14.70;99.90
23079;DHT22;11707;50.830;4.364;2023-08-06T03:16:17;14.70;99.90
23079;DHT22;11707;50.830;4.364;2023-08-06T03:18:45;14.70;99.90
23079;DHT22;11707;50.830;4.364;2023-08-06T03:21:10;14.70;99.90
23079;DHT22;11707;50.830;4.364;2023-08-06T03:23:36;14.70;99.90
23079;DHT22;11707;50.830;4.364;2023-08-06T03:26:02;14.80;99.90
23079;DHT22;11707;50.830;4.364;2023-08-06T03:28:28;14.80;99.90
23079;DHT22;11707;50.830;4.364;2023-08-06T03:31:01;14.80;99.90
23079;DHT22;11707;50.830;4.364;2023-08-06T03:33:27;14.90;99.90
23079;DHT22;11707;50.830;4.364;2023-08-06T03:35:53;14.90;99.90
23079;DHT22;11707;50.830;4.364;2023-08-06T03:38:21;14.90;99.90
23079;DHT22;11707;50.830;4.364;2023-08-06T03:40:49;14.90;99.90
23079;DHT22;11707;50.830;4.364;2023-08-06T03:43:15;14.90;99.90
23079;DHT22;11707;50.830;4.364;2023-08-06T03:45:41;14.80;99.90
23079;DHT22;11707;50.830;4.364;2023-08-06T03:48:09;14.90;99.90
23079;DHT22;11707;50.830;4.364;2023-08-06T03:50:35;14.90;99.90
23079;DHT22;11707;50.830;4.364;2023-08-06T03:53:01;14.80;99.90
23079;DHT22;11707;50.830;4.364;2023-08-06T03:55:27;14.70;99.90
23079;DHT22;11707;50.830;4.364;2023-08-06T03:57:53;14.70;99.90
23079;DHT22;11707;50.830;4.364;2023-08-06T04:00:18;14.60;99.90
23079;DHT22;11707;50.830;4.364;2023-08-06T04:02:44;14.50;99.90
23079;DHT22;11707;50.830;4.364;2023-08-06T04:05:10;14.40;99.90
23079;DHT22;11707;50.830;4.364;2023-08-06T04:07:38;14.30;99.90
23079;DHT22;11707;50.830;4.364;2023-08-06T04:10:05;14.30;99.90
23079;DHT22;11707;50.830;4.364;2023-08-06T04:12:30;14.20;99.90
23079;DHT22;11707;50.830;4.364;2023-08-06T04:15:01;14.10;99.90
23079;DHT22;11707;50.830;4.364;2023-08-06T04:17:26;14.10;99.90
23079;DHT22;11707;50.830;4.364;2023-08-06T04:19:54;14.00;99.90
23079;DHT22;11707;50.830;4.364;2023-08-06T04:22:21;14.00;99.90
23079;DHT22;11707;50.830;4.364;2023-08-06T04:24:47;14.00;99.90
23079;DHT22;11707;50.830;4.364;2023-08-06T04:27:13;14.00;99.90
23079;DHT22;11707;50.830;4.364;2023-08-06T04:29:39;14.00;99.90
23079;DHT22;11707;50.830;4.364;2023-08-06T04:32:07;14.00;99.90
23079;DHT22;11707;50.830;4.364;2023-08-06T04:34:33;14.00;99.90
23079;DHT22;11707;50.830;4.364;2023-08-06T04:37:02;14.00;99.90
23079;DHT22;11707;50.830;4.364;2023-08-06T04:39:28;14.00;99.90
23079;DHT22;11707;50.830;4.364;2023-08-06T04:41:55;14.00;99.90
23079;DHT22;11707;50.830;4.364;2023-08-06T04:44:21;14.00;99.90
23079;DHT22;11707;50.830;4.364;2023-08-06T04:46:46;14.00;99.90
23079;DHT22;11707;50.830;4.364;2023-08-06T04:49:12;13.90;99.90
23079;DHT22;11707;50.830;4.364;2023-08-06T04:51:39;13.80;99.90
23079;DHT22;11707;50.830;4.364;2023-08-06T04:54:07;13.70;99.90
23079;DHT22;11707;50.830;4.364;2023-08-06T04:56:33;13.70;99.90
23079;DHT22;11707;50.830;4.364;2023-08-06T04:58:59;13.70;99.90
23079;DHT22;11707;50.830;4.364;2023-08-06T05:01:25;13.70;99.90
23079;DHT22;11707;50.830;4.364;2023-08-06T05:03:50;13.70;99.90
23079;DHT22;11707;50.830;4.364;2023-08-06T05:06:18;13.70;99.90
23079;DHT22;11707;50.830;4.364;2023-08-06T05:08:44;13.70;99.90
23079;DHT22;11707;50.830;4.364;2023-08-06T05:11:09;13.70;99.90
23079;DHT22;11707;50.830;4.364;2023-08-06T05:13:35;13.70;99.90
23079;DHT22;11707;50.830;4.364;2023-08-06T05:16:01;13.80;99.90
23079;DHT22;11707;50.830;4.364;2023-08-06T05:18:29;13.70;99.90
23079;DHT22;11707;50.830;4.364;2023-08-06T05:20:56;13.80;99.90
23079;DHT22;11707;50.830;4.364;2023-08-06T05:23:23;13.80;99.90
23079;DHT22;11707;50.830;4.364;2023-08-06T05:25:49;13.80;99.90
23079;DHT22;11707;50.830;4.364;2023-08-06T05:28:17;13.80;99.90
23079;DHT22;11707;50.830;4.364;2023-08-06T05:30:42;13.80;99.90
23079;DHT22;11707;50.830;4.364;2023-08-06T05:33:08;13.80;99.90
23079;DHT22;11707;50.830;4.364;2023-08-06T05:35:34;13.80;99.90
23079;DHT22;11707;50.830;4.364;2023-08-06T05:37:59;13.80;99.90
23079;DHT22;11707;50.830;4.364;2023-08-06T05:40:25;13.80;99.90
23079;DHT22;11707;50.830;4.364;2023-08-06T05:42:54;13.80;99.90
23079;DHT22;11707;50.830;4.364;2023-08-06T05:45:22;13.90;99.90
23079;DHT22;11707;50.830;4.364;2023-08-06T05:47:48;13.80;99.90
23079;DHT22;11707;50.830;4.364;2023-08-06T05:50:16;13.80;99.90
23079;DHT22;11707;50.830;4.364;2023-08-06T05:52:42;13.80;99.90
23079;DHT22;11707;50.830;4.364;2023-08-06T05:55:08;13.80;99.90
23079;DHT22;11707;50.830;4.364;2023-08-06T05:57:38;13.80;99.90
23079;DHT22;11707;50.830;4.364;2023-08-06T06:00:05;13.80;99.90
23079;DHT22;11707;50.830;4.364;2023-08-06T06:02:31;13.80;99.90
23079;DHT22;11707;50.830;4.364;2023-08-06T06:04:57;13.80;99.90
23079;DHT22;11707;50.830;4.364;2023-08-06T06:07:22;13.80;99.90
23079;DHT22;11707;50.830;4.364;2023-08-06T06:09:48;13.80;99.90
23079;DHT22;11707;50.830;4.364;2023-08-06T06:12:14;13.90;99.90
23079;DHT22;11707;50.830;4.364;2023-08-06T06:14:39;13.80;99.90
23079;DHT22;11707;50.830;4.364;2023-08-06T06:17:05;13.90;99.90
23079;DHT22;11707;50.830;4.364;2023-08-06T06:19:33;13.90;99.90
23079;DHT22;11707;50.830;4.364;2023-08-06T06:22:01;14.00;99.90
23079;DHT22;11707;50.830;4.364;2023-08-06T06:24:26;14.00;99.90
23079;DHT22;11707;50.830;4.364;2023-08-06T06:26:52;14.10;99.90
23079;DHT22;11707;50.830;4.364;2023-08-06T06:29:20;14.10;99.90
23079;DHT22;11707;50.830;4.364;2023-08-06T06:31:48;14.10;99.90
23079;DHT22;11707;50.830;4.364;2023-08-06T06:34:16;14.10;99.90
23079;DHT22;11707;50.830;4.364;2023-08-06T06:36:41;14.10;99.90
23079;DHT22;11707;50.830;4.364;2023-08-06T06:39:07;14.10;99.90
23079;DHT22;11707;50.830;4.364;2023-08-06T06:41:33;14.20;99.90
23079;DHT22;11707;50.830;4.364;2023-08-06T06:43:59;14.10;99.90
23079;DHT22;11707;50.830;4.364;2023-08-06T06:46:24;14.10;99.90
23079;DHT22;11707;50.830;4.364;2023-08-06T06:48:50;14.00;99.90
23079;DHT22;11707;50.830;4.364;2023-08-06T06:51:16;14.00;99.90
23079;DHT22;11707;50.830;4.364;2023-08-06T06:53:41;13.90;99.90
23079;DHT22;11707;50.830;4.364;2023-08-06T06:56:07;13.90;99.90
23079;DHT22;11707;50.830;4.364;2023-08-06T06:58:32;13.90;99.90
23079;DHT22;11707;50.830;4.364;2023-08-06T07:01:03;13.90;99.90
23079;DHT22;11707;50.830;4.364;2023-08-06T07:03:28;13.90;99.90
23079;DHT22;11707;50.830;4.364;2023-08-06T07:05:57;13.90;99.90
23079;DHT22;11707;50.830;4.364;2023-08-06T07:08:26;13.80;99.90
23079;DHT22;11707;50.830;4.364;2023-08-06T07:11:03;13.80;99.90
23079;DHT22;11707;50.830;4.364;2023-08-06T07:13:29;13.80;99.90
23079;DHT22;11707;50.830;4.364;2023-08-06T07:15:55;13.80;99.90
23079;DHT22;11707;50.830;4.364;2023-08-06T07:18:21;13.80;99.90
23079;DHT22;11707;50.830;4.364;2023-08-06T07:20:51;13.90;99.90
23079;DHT22;11707;50.830;4.364;2023-08-06T07:23:23;13.90;99.90
23079;DHT22;11707;50.830;4.364;2023-08-06T07:25:49;14.00;99.90
23079;DHT22;11707;50.830;4.364;2023-08-06T07:28:16;14.10;99.90
23079;DHT22;11707;50.830;4.364;2023-08-06T07:30:42;14.10;99.90
23079;DHT22;11707;50.830;4.364;2023-08-06T07:33:10;14.00;99.90
23079;DHT22;11707;50.830;4.364;2023-08-06T07:35:37;14.00;99.90
23079;DHT22;11707;50.830;4.364;2023-08-06T07:38:03;14.00;99.90
23079;DHT22;11707;50.830;4.364;2023-08-06T07:40:29;14.10;99.90
23079;DHT22;11707;50.830;4.364;2023-08-06T07:42:54;14.10;99.90
23079;DHT22;11707;50.830;4.364;2023-08-06T07:45:20;14.20;99.90
23079;DHT22;11707;50.830;4.364;2023-08-06T07:47:46;14.20;99.90
23079;DHT22;11707;50.830;4.364;2023-08-06T07:50:14;14.20;99.90
23079;DHT22;11707;50.830;4.364;2023-08-06T07:52:39;14.30;99.90
23079;DHT22;11707;50.830;4.364;2023-08-06T07:55:05;14.30;99.90
23079;DHT22;11707;50.830;4.364;2023-08-06T07:57:31;14.30;99.90
23079;DHT22;11707;50.830;4.364;2023-08-06T07:59:57;14.40;99.90
23079;DHT22;11707;50.830;4.364;2023-08-06T08:02:23;14.30;99.90
23079;DHT22;11707;50.830;4.364;2023-08-06T08:04:49;14.30;99.90
23079;DHT22;11707;50.830;4.364;2023-08-06T08:07:16;14.30;99.90
23079;DHT22;11707;50.830;4.364;2023-08-06T08:09:42;14.20;99.90
23079;DHT22;11707;50.830;4.364;2023-08-06T08:12:08;14.30;99.90
23079;DHT22;11707;50.830;4.364;2023-08-06T08:14:34;14.50;99.90
23079;DHT22;11707;50.830;4.364;2023-08-06T08:17:04;14.50;99.90
23079;DHT22;11707;50.830;4.364;2023-08-06T08:19:31;14.50;99.90
23079;DHT22;11707;50.830;4.364;2023-08-06T08:21:57;14.40;99.90
23079;DHT22;11707;50.830;4.364;2023-08-06T08:24:23;14.50;99.90
23079;DHT22;11707;50.830;4.364;2023-08-06T08:26:53;14.40;99.90
23079;DHT22;11707;50.830;4.364;2023-08-06T08:29:20;14.30;99.90
23079;DHT22;11707;50.830;4.364;2023-08-06T08:31:46;14.10;99.90
23079;DHT22;11707;50.830;4.364;2023-08-06T08:34:15;14.00;99.90
23079;DHT22;11707;50.830;4.364;2023-08-06T08:36:41;14.00;99.90
23079;DHT22;11707;50.830;4.364;2023-08-06T08:39:07;14.00;99.90
23079;DHT22;11707;50.830;4.364;2023-08-06T08:41:38;14.00;99.90
23079;DHT22;11707;50.830;4.364;2023-08-06T08:44:08;14.00;99.90
23079;DHT22;11707;50.830;4.364;2023-08-06T08:46:36;14.00;99.90
23079;DHT22;11707;50.830;4.364;2023-08-06T08:49:06;14.10;99.90
23079;DHT22;11707;50.830;4.364;2023-08-06T08:51:33;14.10;99.90
23079;DHT22;11707;50.830;4.364;2023-08-06T08:54:07;14.30;99.90
23079;DHT22;11707;50.830;4.364;2023-08-06T08:56:33;14.30;99.90
23079;DHT22;11707;50.830;4.364;2023-08-06T08:58:59;14.40;99.90
23079;DHT22;11707;50.830;4.364;2023-08-06T09:01:25;14.40;99.90
23079;DHT22;11707;50.830;4.364;2023-08-06T09:03:51;14.30;99.90
23079;DHT22;11707;50.830;4.364;2023-08-06T09:06:23;14.40;99.90
23079;DHT22;11707;50.830;4.364;2023-08-06T09:09:13;14.50;99.90
23079;DHT22;11707;50.830;4.364;2023-08-06T09:11:43;14.50;99.90
23079;DHT22;11707;50.830;4.364;2023-08-06T09:14:10;14.40;99.90
23079;DHT22;11707;50.830;4.364;2023-08-06T09:16:36;14.40;99.90
23079;DHT22;11707;50.830;4.364;2023-08-06T09:19:11;14.20;99.90
23079;DHT22;11707;50.830;4.364;2023-08-06T09:21:45;14.20;99.90
23079;DHT22;11707;50.830;4.364;2023-08-06T09:24:14;14.10;99.90
23079;DHT22;11707;50.830;4.364;2023-08-06T09:26:41;14.10;99.90
23079;DHT22;11707;50.830;4.364;2023-08-06T09:29:08;14.00;99.90
23079;DHT22;11707;50.830;4.364;2023-08-06T09:32:02;13.80;99.90
23079;DHT22;11707;50.830;4.364;2023-08-06T09:34:28;13.80;99.90
23079;DHT22;11707;50.830;4.364;2023-08-06T09:36:54;13.70;99.90
23079;DHT22;11707;50.830;4.364;2023-08-06T09:39:30;13.70;99.90
23079;DHT22;11707;50.830;4.364;2023-08-06T09:41:58;13.60;99.90
23079;DHT22;11707;50.830;4.364;2023-08-06T09:44:25;13.60;99.90
23079;DHT22;11707;50.830;4.364;2023-08-06T09:46:54;13.60;99.90
23079;DHT22;11707;50.830;4.364;2023-08-06T09:49:21;13.60;99.90
23079;DHT22;11707;50.830;4.364;2023-08-06T09:51:47;13.60;99.90
23079;DHT22;11707;50.830;4.364;2023-08-06T09:54:16;13.50;99.90
23079;DHT22;11707;50.830;4.364;2023-08-06T09:56:46;13.50;99.90
23079;DHT22;11707;50.830;4.364;2023-08-06T09:59:12;13.50;99.90
23079;DHT22;11707;50.830;4.364;2023-08-06T10:01:37;13.60;99.90
23079;DHT22;11707;50.830;4.364;2023-08-06T10:04:05;13.70;99.90
23079;DHT22;11707;50.830;4.364;2023-08-06T10:06:35;13.80;99.90
23079;DHT22;11707;50.830;4.364;2023-08-06T10:09:02;13.80;99.90
23079;DHT22;11707;50.830;4.364;2023-08-06T10:11:31;13.90;99.90
23079;DHT22;11707;50.830;4.364;2023-08-06T10:16:35;14.10;99.90
23079;DHT22;11707;50.830;4.364;2023-08-06T10:19:05;14.20;99.90
23079;DHT22;11707;50.830;4.364;2023-08-06T10:21:32;14.10;99.90
23079;DHT22;11707;50.830;4.364;2023-08-06T10:23:58;14.10;99.90
23079;DHT22;11707;50.830;4.364;2023-08-06T10:26:30;14.10;99.90
23079;DHT22;11707;50.830;4.364;2023-08-06T10:28:56;14.20;99.90
23079;DHT22;11707;50.830;4.364;2023-08-06T10:31:55;14.10;99.90
23079;DHT22;11707;50.830;4.364;2023-08-06T10:34:23;14.00;99.90
23079;DHT22;11707;50.830;4.364;2023-08-06T10:36:49;13.80;99.90
23079;DHT22;11707;50.830;4.364;2023-08-06T10:39:17;13.80;99.90
23079;DHT22;11707;50.830;4.364;2023-08-06T10:41:45;13.70;99.90
23079;DHT22;11707;50.830;4.364;2023-08-06T10:44:11;13.60;99.90
23079;DHT22;11707;50.830;4.364;2023-08-06T10:46:37;13.60;99.90
23079;DHT22;11707;50.830;4.364;2023-08-06T10:49:04;13.50;99.90
23079;DHT22;11707;50.830;4.364;2023-08-06T10:51:30;13.50;99.90
23079;DHT22;11707;50.830;4.364;2023-08-06T10:53:56;13.50;99.90
23079;DHT22;11707;50.830;4.364;2023-08-06T10:56:26;13.60;99.90
23079;DHT22;11707;50.830;4.364;2023-08-06T10:58:56;13.70;99.90
23079;DHT22;11707;50.830;4.364;2023-08-06T11:01:23;13.80;99.90
23079;DHT22;11707;50.830;4.364;2023-08-06T11:03:50;13.90;99.90
23079;DHT22;11707;50.830;4.364;2023-08-06T11:06:25;14.10;99.90
23079;DHT22;11707;50.830;4.364;2023-08-06T11:08:54;14.20;99.90
23079;DHT22;11707;50.830;4.364;2023-08-06T11:11:21;14.30;99.90
23079;DHT22;11707;50.830;4.364;2023-08-06T11:13:49;14.30;99.90
23079;DHT22;11707;50.830;4.364;2023-08-06T11:16:16;14.40;99.90
23079;DHT22;11707;50.830;4.364;2023-08-06T11:18:43;14.40;99.90
23079;DHT22;11707;50.830;4.364;2023-08-06T11:21:12;14.50;99.90
23079;DHT22;11707;50.830;4.364;2023-08-06T11:23:38;14.40;99.90
23079;DHT22;11707;50.830;4.364;2023-08-06T11:26:04;14.40;99.90
23079;DHT22;11707;50.830;4.364;2023-08-06T11:28:30;14.50;99.90
23079;DHT22;11707;50.830;4.364;2023-08-06T11:30:55;14.60;99.90
23079;DHT22;11707;50.830;4.364;2023-08-06T11:33:22;14.60;99.90
23079;DHT22;11707;50.830;4.364;2023-08-06T11:35:51;14.50;99.90
23079;DHT22;11707;50.830;4.364;2023-08-06T11:38:17;14.40;99.90
23079;DHT22;11707;50.830;4.364;2023-08-06T11:40:47;14.20;99.90
23079;DHT22;11707;50.830;4.364;2023-08-06T11:43:13;14.00;99.90
23079;DHT22;11707;50.830;4.364;2023-08-06T11:45:40;13.90;99.90
23079;DHT22;11707;50.830;4.364;2023-08-06T11:48:06;13.70;99.90
23079;DHT22;11707;50.830;4.364;2023-08-06T11:50:37;13.80;99.90
23079;DHT22;11707;50.830;4.364;2023-08-06T11:53:04;13.80;99.90
23079;DHT22;11707;50.830;4.364;2023-08-06T11:55:30;13.70;99.90
23079;DHT22;11707;50.830;4.364;2023-08-06T11:57:57;13.70;99.90
23079;DHT22;11707;50.830;4.364;2023-08-06T12:00:24;13.60;99.90
23079;DHT22;11707;50.830;4.364;2023-08-06T12:02:50;13.70;99.90
23079;DHT22;11707;50.830;4.364;2023-08-06T12:05:24;13.70;99.90
23079;DHT22;11707;50.830;4.364;2023-08-06T12:07:58;13.70;99.90
23079;DHT22;11707;50.830;4.364;2023-08-06T12:10:26;13.70;99.90
23079;DHT22;11707;50.830;4.364;2023-08-06T12:12:52;13.70;99.90
23079;DHT22;11707;50.830;4.364;2023-08-06T12:15:18;13.70;99.90
23079;DHT22;11707;50.830;4.364;2023-08-06T12:17:43;13.80;99.90
23079;DHT22;11707;50.830;4.364;2023-08-06T12:20:12;13.80;99.90
23079;DHT22;11707;50.830;4.364;2023-08-06T12:22:38;13.90;99.90
23079;DHT22;11707;50.830;4.364;2023-08-06T12:25:08;14.00;99.90
23079;DHT22;11707;50.830;4.364;2023-08-06T12:27:40;14.20;99.90
23079;DHT22;11707;50.830;4.364;2023-08-06T12:30:10;14.30;99.90
23079;DHT22;11707;50.830;4.364;2023-08-06T12:32:36;14.40;99.90
23079;DHT22;11707;50.830;4.364;2023-08-06T12:35:02;14.50;99.90
23079;DHT22;11707;50.830;4.364;2023-08-06T12:37:28;14.60;99.90
23079;DHT22;11707;50.830;4.364;2023-08-06T12:39:56;14.60;99.90
23079;DHT22;11707;50.830;4.364;2023-08-06T12:42:24;14.40;99.90
23079;DHT22;11707;50.830;4.364;2023-08-06T12:44:51;14.20;99.90
23079;DHT22;11707;50.830;4.364;2023-08-06T12:47:17;14.10;99.90
23079;DHT22;11707;50.830;4.364;2023-08-06T12:49:43;14.10;99.90
23079;DHT22;11707;50.830;4.364;2023-08-06T12:52:08;14.00;99.90
23079;DHT22;11707;50.830;4.364;2023-08-06T12:54:35;13.90;99.90
23079;DHT22;11707;50.830;4.364;2023-08-06T12:57:02;14.00;99.90
23079;DHT22;11707;50.830;4.364;2023-08-06T12:59:28;14.10;99.90
23079;DHT22;11707;50.830;4.364;2023-08-06T13:01:54;14.30;99.90
23079;DHT22;11707;50.830;4.364;2023-08-06T13:04:19;14.40;99.90
23079;DHT22;11707;50.830;4.364;2023-08-06T13:06:46;14.30;99.90
23079;DHT22;11707;50.830;4.364;2023-08-06T13:09:12;14.40;99.90
23079;DHT22;11707;50.830;4.364;2023-08-06T13:11:41;14.30;99.90
23079;DHT22;11707;50.830;4.364;2023-08-06T13:14:11;14.40;99.90
23079;DHT22;11707;50.830;4.364;2023-08-06T13:16:40;14.30;99.90
23079;DHT22;11707;50.830;4.364;2023-08-06T13:19:06;14.30;99.90
23079;DHT22;11707;50.830;4.364;2023-08-06T13:24:07;14.20;99.90
23079;DHT22;11707;50.830;4.364;2023-08-06T13:26:36;14.30;99.90
23079;DHT22;11707;50.830;4.364;2023-08-06T13:29:02;14.30;99.90
23079;DHT22;11707;50.830;4.364;2023-08-06T13:31:28;14.20;99.90
23079;DHT22;11707;50.830;4.364;2023-08-06T13:33:54;14.10;99.90
23079;DHT22;11707;50.830;4.364;2023-08-06T13:36:21;14.10;99.90
23079;DHT22;11707;50.830;4.364;2023-08-06T13:38:47;14.10;99.90
23079;DHT22;11707;50.830;4.364;2023-08-06T13:41:13;14.00;99.90
23079;DHT22;11707;50.830;4.364;2023-08-06T13:43:39;14.00;99.90
23079;DHT22;11707;50.830;4.364;2023-08-06T13:46:07;13.90;99.90
23079;DHT22;11707;50.830;4.364;2023-08-06T13:48:32;13.90;99.90
23079;DHT22;11707;50.830;4.364;2023-08-06T13:50:58;13.90;99.90
23079;DHT22;11707;50.830;4.364;2023-08-06T13:53:26;13.80;99.90
23079;DHT22;11707;50.830;4.364;2023-08-06T13:55:56;13.80;99.90
23079;DHT22;11707;50.830;4.364;2023-08-06T13:58:22;13.70;99.90
23079;DHT22;11707;50.830;4.364;2023-08-06T14:00:48;13.70;99.90
23079;DHT22;11707;50.830;4.364;2023-08-06T14:03:16;13.70;99.90
23079;DHT22;11707;50.830;4.364;2023-08-06T14:05:42;13.60;99.90
23079;DHT22;11707;50.830;4.364;2023-08-06T14:08:07;13.70;99.90
23079;DHT22;11707;50.830;4.364;2023-08-06T14:10:33;13.70;99.90
23079;DHT22;11707;50.830;4.364;2023-08-06T14:12:59;13.70;99.90
23079;DHT22;11707;50.830;4.364;2023-08-06T14:15:24;13.70;99.90
23079;DHT22;11707;50.830;4.364;2023-08-06T14:17:50;13.80;99.90
23079;DHT22;11707;50.830;4.364;2023-08-06T14:20:16;13.80;99.90
23079;DHT22;11707;50.830;4.364;2023-08-06T14:22:44;13.80;99.90
23079;DHT22;11707;50.830;4.364;2023-08-06T14:25:09;13.90;99.90
23079;DHT22;11707;50.830;4.364;2023-08-06T14:27:35;13.90;99.90
23079;DHT22;11707;50.830;4.364;2023-08-06T14:30:01;13.90;99.90
23079;DHT22;11707;50.830;4.364;2023-08-06T14:32:28;13.80;99.90
23079;DHT22;11707;50.830;4.364;2023-08-06T14:34:54;13.70;99.90
23079;DHT22;11707;50.830;4.364;2023-08-06T14:37:20;13.70;99.90
23079;DHT22;11707;50.830;4.364;2023-08-06T14:39:45;13.70;99.90
23079;DHT22;11707;50.830;4.364;2023-08-06T14:42:13;13.70;99.90
23079;DHT22;11707;50.830;4.364;2023-08-06T14:44:39;13.70;99.90
23079;DHT22;11707;50.830;4.364;2023-08-06T14:47:07;13.70;99.90
23079;DHT22;11707;50.830;4.364;2023-08-06T14:49:33;13.70;99.90
23079;DHT22;11707;50.830;4.364;2023-08-06T14:51:58;13.80;99.90
23079;DHT22;11707;50.830;4.364;2023-08-06T14:54:25;13.80;99.90
23079;DHT22;11707;50.830;4.364;2023-08-06T14:56:52;13.90;99.90
23079;DHT22;11707;50.830;4.364;2023-08-06T14:59:18;13.90;99.90
23079;DHT22;11707;50.830;4.364;2023-08-06T15:01:45;14.00;99.90
23079;DHT22;11707;50.830;4.364;2023-08-06T15:04:11;14.00;99.90
23079;DHT22;11707;50.830;4.364;2023-08-06T15:06:39;14.10;99.90
23079;DHT22;11707;50.830;4.364;2023-08-06T15:09:04;14.10;99.90
23079;DHT22;11707;50.830;4.364;2023-08-06T15:11:30;14.10;99.90
23079;DHT22;11707;50.830;4.364;2023-08-06T15:13:56;14.30;99.90
23079;DHT22;11707;50.830;4.364;2023-08-06T15:16:22;14.40;99.90
23079;DHT22;11707;50.830;4.364;2023-08-06T15:18:47;14.50;99.90
23079;DHT22;11707;50.830;4.364;2023-08-06T15:21:17;14.50;99.90
23079;DHT22;11707;50.830;4.364;2023-08-06T15:23:43;14.60;99.90
23079;DHT22;11707;50.830;4.364;2023-08-06T15:26:08;14.70;99.90
23079;DHT22;11707;50.830;4.364;2023-08-06T15:28:34;14.70;99.90
23079;DHT22;11707;50.830;4.364;2023-08-06T15:31:01;14.70;99.90
23079;DHT22;11707;50.830;4.364;2023-08-06T15:33:29;14.50;99.90
23079;DHT22;11707;50.830;4.364;2023-08-06T15:35:57;14.20;99.90
23079;DHT22;11707;50.830;4.364;2023-08-06T15:38:23;14.30;99.90
23079;DHT22;11707;50.830;4.364;2023-08-06T15:40:48;14.40;99.90
23079;DHT22;11707;50.830;4.364;2023-08-06T15:43:14;14.60;99.90
23079;DHT22;11707;50.830;4.364;2023-08-06T15:45:42;14.80;99.90